Time;durP1;ratioP1;P1;durP2;ratioP2;P2;SDS_P1;SDS_P2;PMS_P1;PMS_P2;Temp;Humidity;BMP_temperature;BMP_pressure;BME280_temperature;BME280_humidity;BME280_pressure;Samples;Min_cycle;Max_cycle;Signal;HPM_P1;HPM_P2
2023/04/18 00:02:18;;;;;;;34.35;31.10;;;11.70;99.90;;;;;;5167640;28;20023;-78
2023/04/18 00:04:49;;;;;;;32.75;29.42;;;11.60;99.90;;;;;;5150410;28;20061;-78
2023/04/18 00:07:20;;;;;;;35.72;32.83;;;11.80;99.90;;;;;;5150202;28;20378;-78
2023/04/18 00:09:51;;;;;;;34.60;31.23;;;11.70;99.90;;;;;;5167544;28;20026;-78
2023/04/18 00:12:22;;;;;;;35.75;32.65;;;11.60;99.90;;;;;;5167522;28;20489;-78
2023/04/18 00:14:53;;;;;;;32.53;29.70;;;11.60;99.90;;;;;;5149816;28;20029;-78
2023/04/18 00:17:27;;;;;;;33.15;30.23;;;11.70;99.90;;;;;;5167419;28;20394;-79
2023/04/18 00:20:01;;;;;;;30.67;27.88;;;11.70;99.90;;;;;;5167284;28;20113;-78
2023/04/18 00:22:32;;;;;;;32.47;29.67;;;11.60;99.90;;;;;;5167692;28;20046;-78
2023/04/18 00:25:03;;;;;;;29.95;26.85;;;11.60;99.90;;;;;;5149844;28;20057;-78
2023/04/18 00:27:34;;;;;;;30.00;27.58;;;11.50;99.90;;;;;;5149875;28;20895;-77
2023/04/18 00:30:07;;;;;;;29.13;26.45;;;11.60;99.90;;;;;;5166765;28;20029;-78
2023/04/18 00:32:38;;;;;;;26.73;24.05;;;11.40;99.90;;;;;;5149394;28;20504;-78
2023/04/18 00:35:09;;;;;;;26.45;23.95;;;11.40;99.90;;;;;;5167319;28;20022;-78
2023/04/18 00:37:40;;;;;;;27.38;24.85;;;11.60;99.90;;;;;;5149424;28;20034;-78
2023/04/18 00:40:11;;;;;;;27.92;25.48;;;11.60;99.90;;;;;;5149811;28;20029;-78
2023/04/18 00:42:41;;;;;;;30.08;27.40;;;11.50;99.90;;;;;;5149584;28;20027;-79
2023/04/18 00:45:12;;;;;;;30.27;27.45;;;11.50;99.90;;;;;;5149201;28;20065;-78
2023/04/18 00:47:43;;;;;;;30.60;28.00;;;11.50;99.90;;;;;;5167092;28;20026;-79
2023/04/18 00:50:15;;;;;;;29.60;26.67;;;11.50;99.90;;;;;;5166838;28;20101;-79
2023/04/18 00:52:46;;;;;;;32.65;29.75;;;11.70;99.90;;;;;;5167297;28;20062;-79
2023/04/18 00:55:18;;;;;;;32.60;29.45;;;11.60;99.90;;;;;;5166750;28;20033;-78
2023/04/18 00:57:50;;;;;;;31.05;28.33;;;11.60;99.90;;;;;;5166955;28;20031;-78
2023/04/18 01:00:21;;;;;;;29.27;26.25;;;11.40;99.90;;;;;;5167044;28;20031;-79
2023/04/18 01:02:54;;;;;;;30.45;27.70;;;11.60;99.90;;;;;;5166756;28;20026;-78
2023/04/18 01:05:25;;;;;;;26.98;24.55;;;11.60;99.90;;;;;;5149514;28;20052;-78
2023/04/18 01:07:59;;;;;;;28.55;26.02;;;11.40;99.90;;;;;;5166866;28;20027;-78
2023/04/18 01:10:30;;;;;;;27.52;25.13;;;11.40;99.90;;;;;;5167135;28;20023;-78
2023/04/18 01:13:18;;;;;;;29.02;26.55;;;11.50;99.90;;;;;;5149207;28;20038;-79
2023/04/18 01:15:50;;;;;;;28.58;25.88;;;11.50;99.90;;;;;;5166808;28;20740;-79
2023/04/18 01:18:21;;;;;;;26.17;23.88;;;11.40;99.90;;;;;;5149286;28;20070;-79
2023/04/18 01:20:59;;;;;;;28.83;26.38;;;11.60;99.90;;;;;;5149253;28;20062;-78
2023/04/18 01:23:30;;;;;;;27.85;25.08;;;11.50;99.90;;;;;;5149177;28;20033;-79
2023/04/18 01:26:01;;;;;;;27.77;25.35;;;11.40;99.90;;;;;;5148789;28;20023;-79
2023/04/18 01:28:35;;;;;;;28.75;26.48;;;11.50;99.90;;;;;;5166420;28;20035;-78
2023/04/18 01:31:06;;;;;;;29.40;26.80;;;11.50;99.90;;;;;;5149239;28;20050;-79
2023/04/18 01:33:37;;;;;;;27.45;25.17;;;11.50;99.90;;;;;;5166621;28;20026;-78
2023/04/18 01:36:08;;;;;;;27.75;25.08;;;11.40;99.90;;;;;;5165994;28;20030;-79
2023/04/18 01:38:39;;;;;;;29.13;26.30;;;11.40;99.90;;;;;;5165903;28;20046;-79
2023/04/18 01:41:09;;;;;;;26.33;23.80;;;11.30;99.90;;;;;;5148693;28;20085;-78
2023/04/18 01:43:40;;;;;;;25.42;23.42;;;11.30;99.90;;;;;;5169727;28;20026;-79
2023/04/18 01:46:11;;;;;;;27.83;25.20;;;11.50;99.90;;;;;;5170237;28;20030;-78
2023/04/18 01:48:42;;;;;;;29.08;26.63;;;11.40;99.90;;;;;;5152835;28;20041;-79
2023/04/18 01:51:13;;;;;;;28.60;26.30;;;11.40;99.90;;;;;;5169845;28;20051;-78
2023/04/18 01:53:44;;;;;;;27.60;25.08;;;11.30;99.90;;;;;;5170539;28;20031;-78
2023/04/18 01:56:14;;;;;;;28.42;25.60;;;11.30;99.90;;;;;;5170001;28;20025;-79
2023/04/18 01:58:45;;;;;;;30.75;28.17;;;11.40;99.90;;;;;;5169956;28;20042;-78
2023/04/18 02:01:16;;;;;;;29.30;26.45;;;11.30;99.90;;;;;;5170599;28;20351;-79
2023/04/18 02:03:47;;;;;;;29.90;27.38;;;11.50;99.90;;;;;;5170038;28;20105;-79
2023/04/18 02:06:18;;;;;;;27.77;24.98;;;11.50;99.90;;;;;;5169699;28;20030;-79
2023/04/18 02:08:49;;;;;;;28.83;26.08;;;11.40;99.90;;;;;;5170010;28;20023;-78
2023/04/18 02:11:19;;;;;;;29.30;26.48;;;11.40;99.90;;;;;;5169921;28;20026;-79
2023/04/18 02:13:51;;;;;;;29.05;26.13;;;11.40;99.90;;;;;;5152308;28;20026;-79
2023/04/18 02:16:22;;;;;;;27.38;24.50;;;11.40;99.90;;;;;;5152088;28;20026;-78
2023/04/18 02:18:53;;;;;;;27.35;24.67;;;11.30;99.90;;;;;;5152193;28;20034;-79
2023/04/18 02:21:24;;;;;;;28.00;25.23;;;11.50;99.90;;;;;;5152169;28;20062;-78
2023/04/18 02:23:55;;;;;;;28.17;25.52;;;11.30;99.90;;;;;;5170103;28;20033;-79
2023/04/18 02:26:26;;;;;;;28.70;25.98;;;11.40;99.90;;;;;;5152070;28;20394;-79
2023/04/18 02:28:57;;;;;;;28.00;25.63;;;11.30;99.90;;;;;;5151877;28;20031;-79
2023/04/18 02:31:28;;;;;;;29.77;27.05;;;11.30;99.90;;;;;;5151905;28;20030;-79
2023/04/18 02:33:59;;;;;;;27.40;24.77;;;11.30;99.90;;;;;;5169448;28;20081;-78
2023/04/18 02:36:30;;;;;;;29.33;26.63;;;11.30;99.90;;;;;;5169530;28;20030;-79
2023/04/18 02:39:01;;;;;;;29.33;26.67;;;11.30;99.90;;;;;;5169594;28;20084;-78
2023/04/18 02:41:33;;;;;;;29.70;27.40;;;11.30;99.90;;;;;;5151830;28;20367;-79
2023/04/18 02:44:05;;;;;;;27.55;24.95;;;11.30;99.90;;;;;;5169145;28;20025;-78
2023/04/18 02:46:36;;;;;;;29.92;27.42;;;11.30;99.90;;;;;;5169218;28;20028;-79
2023/04/18 02:49:07;;;;;;;30.60;28.00;;;11.50;99.90;;;;;;5151670;28;20478;-79
2023/04/18 02:51:38;;;;;;;28.92;26.35;;;11.50;99.90;;;;;;5151494;28;20113;-79
2023/04/18 02:54:09;;;;;;;28.08;24.95;;;11.30;99.90;;;;;;5150501;28;20037;-78
2023/04/18 02:56:41;;;;;;;27.50;24.85;;;11.30;99.90;;;;;;5169255;28;20018;-79
2023/04/18 02:59:12;;;;;;;31.52;28.23;;;11.30;99.90;;;;;;5168741;28;20066;-78
2023/04/18 03:01:43;;;;;;;30.60;27.65;;;11.30;99.90;;;;;;5151460;28;20497;-78
2023/04/18 03:04:14;;;;;;;30.90;27.88;;;11.30;99.90;;;;;;5151404;28;20026;-78
2023/04/18 03:06:44;;;;;;;30.55;27.75;;;11.30;99.90;;;;;;5151473;28;20081;-79
2023/04/18 03:09:15;;;;;;;30.95;27.90;;;11.30;99.90;;;;;;5168928;28;20496;-79
2023/04/18 03:11:46;;;;;;;27.77;24.95;;;11.40;99.90;;;;;;5151439;28;20034;-78
2023/04/18 03:14:18;;;;;;;29.63;26.60;;;11.20;99.90;;;;;;5151085;28;20018;-78
2023/04/18 03:16:49;;;;;;;27.98;25.40;;;11.30;99.90;;;;;;5150887;28;20053;-79
2023/04/18 03:19:20;;;;;;;28.38;25.25;;;11.30;99.90;;;;;;5168455;28;20137;-78
2023/04/18 03:21:51;;;;;;;29.25;26.35;;;11.30;99.90;;;;;;5168377;28;20101;-78
2023/04/18 03:24:22;;;;;;;30.85;26.08;;;11.30;99.90;;;;;;5169104;28;20158;-79
2023/04/18 03:26:53;;;;;;;28.85;24.88;;;11.30;99.90;;;;;;5168318;28;20390;-79
2023/04/18 03:29:24;;;;;;;30.15;25.70;;;11.20;99.90;;;;;;5168381;28;20025;-78
2023/04/18 03:31:55;;;;;;;28.90;25.90;;;11.20;99.90;;;;;;5168372;28;20030;-78
2023/04/18 03:34:26;;;;;;;28.20;25.27;;;11.20;99.90;;;;;;5168358;28;20041;-79
2023/04/18 03:36:57;;;;;;;28.67;25.85;;;11.20;99.90;;;;;;5150773;28;20033;-78
2023/04/18 03:39:27;;;;;;;29.08;25.67;;;11.20;99.90;;;;;;5150459;28;20038;-77
2023/04/18 03:41:58;;;;;;;28.05;25.15;;;11.20;99.90;;;;;;5168493;28;20018;-78
2023/04/18 03:44:30;;;;;;;27.10;24.42;;;11.30;99.90;;;;;;5151030;28;20038;-78
2023/04/18 03:47:01;;;;;;;26.30;24.00;;;11.40;99.90;;;;;;5168009;28;20023;-79
2023/04/18 03:49:31;;;;;;;27.38;24.80;;;11.30;99.90;;;;;;5167984;28;20037;-78
2023/04/18 03:52:02;;;;;;;27.00;24.42;;;11.30;99.90;;;;;;5167703;28;20061;-78
2023/04/18 03:54:33;;;;;;;26.33;23.50;;;11.30;99.90;;;;;;5150628;28;20031;-78
2023/04/18 03:57:04;;;;;;;26.88;24.02;;;11.30;99.90;;;;;;5150551;28;20462;-78
2023/04/18 03:59:35;;;;;;;26.63;24.13;;;11.30;99.90;;;;;;5167707;28;20038;-78
2023/04/18 04:02:06;;;;;;;27.25;24.85;;;11.20;99.90;;;;;;5150262;28;20406;-78
2023/04/18 04:04:37;;;;;;;28.20;25.23;;;11.20;99.90;;;;;;5150099;28;20034;-78
2023/04/18 04:07:08;;;;;;;25.75;23.23;;;11.30;99.90;;;;;;5167493;28;20019;-78
2023/04/18 04:09:38;;;;;;;27.55;23.58;;;11.10;99.90;;;;;;5167504;28;20082;-79
2023/04/18 04:12:09;;;;;;;27.30;24.52;;;11.20;99.90;;;;;;5167614;28;20023;-78
2023/04/18 04:14:40;;;;;;;24.95;22.33;;;11.20;99.90;;;;;;5167016;28;20030;-78
2023/04/18 04:17:11;;;;;;;28.58;24.17;;;11.30;99.90;;;;;;5167458;28;20491;-78
2023/04/18 04:19:42;;;;;;;26.38;23.75;;;11.20;99.90;;;;;;5167150;28;20117;-79
2023/04/18 04:22:13;;;;;;;27.63;24.75;;;11.30;99.90;;;;;;5167184;28;20121;-78
2023/04/18 04:24:45;;;;;;;24.02;21.88;;;11.10;99.90;;;;;;5167470;28;20039;-78
2023/04/18 04:27:17;;;;;;;26.83;24.52;;;11.20;99.90;;;;;;5167188;28;20022;-79
2023/04/18 04:29:48;;;;;;;24.70;22.25;;;11.30;99.90;;;;;;5150033;28;20045;-78
2023/04/18 04:32:19;;;;;;;24.85;22.45;;;11.30;99.90;;;;;;5149751;28;20086;-79
2023/04/18 04:34:50;;;;;;;25.50;22.70;;;11.30;99.90;;;;;;5167155;28;20034;-78
2023/04/18 04:37:21;;;;;;;25.95;21.73;;;11.20;99.90;;;;;;5149699;28;20066;-79
2023/04/18 04:39:52;;;;;;;24.38;22.08;;;11.20;99.90;;;;;;5166476;28;20061;-79
2023/04/18 04:42:24;;;;;;;26.52;23.75;;;11.20;99.90;;;;;;5166941;28;20029;-79
2023/04/18 04:44:55;;;;;;;25.13;22.65;;;11.20;99.90;;;;;;5149508;28;20022;-78
2023/04/18 04:47:26;;;;;;;24.05;21.73;;;11.20;99.90;;;;;;5166699;28;20026;-79
2023/04/18 04:49:57;;;;;;;27.95;24.95;;;11.20;99.90;;;;;;5149729;28;20033;-79
2023/04/18 04:52:28;;;;;;;27.85;23.63;;;11.20;99.90;;;;;;5166678;28;20073;-79
2023/04/18 04:54:58;;;;;;;26.30;23.65;;;11.40;99.90;;;;;;5167004;28;20041;-79
2023/04/18 04:57:29;;;;;;;25.58;22.70;;;11.30;99.90;;;;;;5166872;28;20462;-78
2023/04/18 05:00:00;;;;;;;28.25;23.73;;;11.10;99.90;;;;;;5149667;28;20455;-79
2023/04/18 05:02:31;;;;;;;26.25;23.83;;;11.20;99.90;;;;;;5149049;28;20053;-78
2023/04/18 05:05:02;;;;;;;27.60;24.50;;;11.10;99.90;;;;;;5149221;28;20474;-78
2023/04/18 05:07:33;;;;;;;26.83;24.02;;;11.20;99.90;;;;;;5149202;28;20034;-78
2023/04/18 05:10:04;;;;;;;28.40;25.50;;;11.20;99.90;;;;;;5167179;28;20030;-78
2023/04/18 05:12:35;;;;;;;27.83;24.98;;;11.20;99.90;;;;;;5166311;28;20026;-79
2023/04/18 05:15:06;;;;;;;24.85;22.45;;;11.40;99.90;;;;;;5149142;28;20018;-79
2023/04/18 05:17:40;;;;;;;28.63;23.25;;;11.20;99.90;;;;;;5167176;28;20340;-78
2023/04/18 05:20:11;;;;;;;29.48;25.25;;;11.30;99.90;;;;;;5170227;28;20037;-78
2023/04/18 05:22:42;;;;;;;29.52;26.42;;;11.30;99.90;;;;;;5170843;28;20030;-79
2023/04/18 05:25:13;;;;;;;31.10;26.45;;;11.20;99.90;;;;;;5170722;28;20035;-78
2023/04/18 05:27:45;;;;;;;29.05;26.48;;;11.10;99.90;;;;;;5170820;28;20027;-78
2023/04/18 05:30:16;;;;;;;28.15;25.20;;;11.20;99.90;;;;;;5170921;28;20018;-78
2023/04/18 05:32:47;;;;;;;26.85;24.48;;;11.10;99.90;;;;;;5170797;28;20045;-78
2023/04/18 05:35:18;;;;;;;26.15;23.58;;;11.20;99.90;;;;;;5170635;28;20080;-78
2023/04/18 05:37:50;;;;;;;27.20;24.48;;;11.20;99.90;;;;;;5153429;28;20031;-78
2023/04/18 05:40:21;;;;;;;29.52;24.83;;;11.10;99.90;;;;;;5170110;28;20478;-78
2023/04/18 05:42:52;;;;;;;26.73;23.92;;;11.10;99.90;;;;;;5169913;28;20022;-78
2023/04/18 05:45:23;;;;;;;27.50;24.50;;;11.20;99.90;;;;;;5152460;28;20031;-78
2023/04/18 05:47:53;;;;;;;25.70;23.38;;;11.30;99.90;;;;;;5152272;28;20100;-78
2023/04/18 05:50:24;;;;;;;26.30;23.70;;;11.20;99.90;;;;;;5152362;28;20073;-78
2023/04/18 05:52:58;;;;;;;27.33;24.67;;;11.20;99.90;;;;;;5152167;28;20552;-79
2023/04/18 05:55:28;;;;;;;27.40;24.48;;;11.20;99.90;;;;;;5152742;28;20485;-78
2023/04/18 05:57:59;;;;;;;26.20;23.55;;;11.20;99.90;;;;;;5169270;28;20031;-78
2023/04/18 06:00:30;;;;;;;32.28;25.45;;;11.40;99.90;;;;;;5152205;28;20057;-79
2023/04/18 06:03:01;;;;;;;26.58;23.55;;;11.20;99.90;;;;;;5169762;28;20035;-79
2023/04/18 06:05:32;;;;;;;29.52;26.58;;;11.20;99.90;;;;;;5166918;28;20029;-79
2023/04/18 06:08:03;;;;;;;31.63;25.83;;;11.30;99.90;;;;;;5132608;28;20148;-79
2023/04/18 06:10:34;;;;;;;31.10;26.50;;;11.30;99.90;;;;;;5149782;28;20073;-79
2023/04/18 06:13:05;;;;;;;29.98;25.90;;;11.30;99.90;;;;;;5149588;28;20034;-79
2023/04/18 06:15:36;;;;;;;26.13;23.25;;;11.40;99.90;;;;;;5149067;28;20557;-79
2023/04/18 06:18:07;;;;;;;27.30;24.55;;;11.40;99.90;;;;;;5149288;28;20035;-78
2023/04/18 06:20:38;;;;;;;29.00;26.48;;;11.40;99.90;;;;;;5157816;28;20109;-79
2023/04/18 06:23:09;;;;;;;28.75;25.50;;;11.40;99.90;;;;;;5147212;28;20065;-78
2023/04/18 06:25:41;;;;;;;31.77;25.48;;;11.30;99.90;;;;;;5156946;28;20052;-79
2023/04/18 06:28:12;;;;;;;27.90;25.08;;;11.20;99.90;;;;;;5149312;28;20085;-78
2023/04/18 06:30:43;;;;;;;26.27;23.63;;;11.40;99.90;;;;;;5148988;28;20030;-79
2023/04/18 06:33:14;;;;;;;28.00;24.15;;;11.40;99.90;;;;;;5139689;28;20027;-79
2023/04/18 06:35:45;;;;;;;26.65;23.23;;;11.40;99.90;;;;;;5156777;28;20130;-79
2023/04/18 06:38:16;;;;;;;31.40;25.63;;;11.50;99.90;;;;;;5149035;28;20123;-79
2023/04/18 06:40:47;;;;;;;27.02;24.30;;;11.50;99.90;;;;;;5150782;28;20035;-79
2023/04/18 06:43:18;;;;;;;28.23;24.98;;;11.50;99.90;;;;;;5168776;28;20023;-79
2023/04/18 06:45:49;;;;;;;26.48;23.88;;;11.50;99.90;;;;;;5151337;28;20034;-79
2023/04/18 06:48:19;;;;;;;29.48;25.95;;;11.40;99.90;;;;;;5169017;28;20026;-79
2023/04/18 06:50:50;;;;;;;29.83;26.73;;;11.40;99.90;;;;;;5168455;28;20038;-79
2023/04/18 06:53:21;;;;;;;29.58;25.17;;;11.60;99.90;;;;;;5151513;28;20066;-80
2023/04/18 06:55:52;;;;;;;29.55;26.40;;;11.50;99.90;;;;;;5151333;28;20026;-79
2023/04/18 06:58:23;;;;;;;27.10;24.17;;;11.50;99.90;;;;;;5160726;28;20089;-79
2023/04/18 07:00:54;;;;;;;26.10;23.58;;;11.60;99.90;;;;;;5168567;28;20441;-79
2023/04/18 07:03:25;;;;;;;29.40;26.33;;;11.60;99.90;;;;;;5151250;28;20023;-79
2023/04/18 07:05:57;;;;;;;35.17;29.52;;;11.40;99.90;;;;;;5168680;28;20038;-78
2023/04/18 07:08:28;;;;;;;29.50;25.00;;;11.40;99.90;;;;;;5168771;28;20027;-79
2023/04/18 07:10:58;;;;;;;35.63;28.50;;;11.60;99.90;;;;;;5168682;28;20037;-79
2023/04/18 07:13:29;;;;;;;29.60;26.77;;;11.70;99.90;;;;;;5150891;28;20027;-79
2023/04/18 07:16:00;;;;;;;30.27;25.80;;;11.70;99.90;;;;;;5151038;28;20510;-79
2023/04/18 07:18:32;;;;;;;34.05;26.67;;;11.70;99.90;;;;;;5165971;28;20074;-79
2023/04/18 07:21:05;;;;;;;33.38;27.65;;;11.70;99.90;;;;;;5135972;28;20023;-79
2023/04/18 07:23:36;;;;;;;31.23;26.83;;;11.70;99.90;;;;;;5138691;28;20473;-78
2023/04/18 07:26:08;;;;;;;29.90;25.77;;;11.60;99.90;;;;;;5162745;28;20101;-79
2023/04/18 07:28:39;;;;;;;28.10;25.23;;;11.60;99.90;;;;;;5167917;28;20023;-78
2023/04/18 07:31:13;;;;;;;32.67;25.30;;;11.60;99.90;;;;;;5168090;28;20026;-78
2023/04/18 07:33:44;;;;;;;35.72;25.58;;;11.70;99.90;;;;;;5168187;28;20040;-77
2023/04/18 07:36:14;;;;;;;28.65;24.90;;;11.60;99.90;;;;;;5150457;28;20373;-78
2023/04/18 07:38:45;;;;;;;31.10;27.33;;;11.70;99.90;;;;;;5150509;28;20038;-77
2023/04/18 07:41:16;;;;;;;39.10;30.13;;;11.70;99.90;;;;;;5167498;28;20069;-77
2023/04/18 07:43:47;;;;;;;35.72;26.85;;;11.70;99.90;;;;;;5168069;28;20035;-78
2023/04/18 07:46:18;;;;;;;31.98;25.98;;;11.70;99.90;;;;;;5167734;28;20050;-77
2023/04/18 07:48:49;;;;;;;30.45;26.15;;;11.60;99.90;;;;;;5167747;28;20022;-77
2023/04/18 07:51:24;;;;;;;32.35;26.98;;;11.80;99.90;;;;;;5167582;28;20546;-77
2023/04/18 07:53:55;;;;;;;29.10;25.00;;;11.90;99.90;;;;;;5150275;28;20039;-78
2023/04/18 07:56:26;;;;;;;35.47;26.52;;;11.90;99.90;;;;;;5167696;28;20018;-77
2023/04/18 07:58:57;;;;;;;44.15;30.33;;;11.80;99.90;;;;;;5167501;28;20600;-77
2023/04/18 08:01:28;;;;;;;29.90;26.58;;;11.90;99.90;;;;;;5167601;28;20101;-78
2023/04/18 08:04:00;;;;;;;33.45;26.65;;;11.90;99.90;;;;;;5167291;28;20034;-77
2023/04/18 08:06:32;;;;;;;35.53;26.83;;;12.00;99.90;;;;;;5167638;28;20022;-77
2023/04/18 08:09:04;;;;;;;31.98;26.85;;;12.00;99.90;;;;;;5167690;28;20027;-77
2023/04/18 08:11:35;;;;;;;33.60;26.90;;;11.90;99.90;;;;;;5167741;28;20022;-77
2023/04/18 08:14:06;;;;;;;27.77;24.90;;;12.00;99.90;;;;;;5167461;28;20093;-77
2023/04/18 08:16:38;;;;;;;28.42;24.17;;;11.80;99.90;;;;;;5152398;28;20065;-77
2023/04/18 08:19:09;;;;;;;33.55;27.10;;;12.00;99.90;;;;;;5129972;28;20045;-78
2023/04/18 08:21:39;;;;;;;32.90;25.05;;;11.90;99.90;;;;;;5129857;28;20114;-78
2023/04/18 08:24:10;;;;;;;30.85;27.10;;;12.00;99.90;;;;;;5153315;28;20033;-78
2023/04/18 08:26:41;;;;;;;32.42;27.27;;;12.00;99.90;;;;;;5167273;28;20026;-78
2023/04/18 08:29:12;;;;;;;34.70;26.75;;;12.10;99.90;;;;;;5167288;28;20081;-77
2023/04/18 08:31:43;;;;;;;33.60;26.40;;;12.20;99.90;;;;;;5167573;28;20034;-77
2023/04/18 08:34:14;;;;;;;30.77;27.48;;;12.10;99.90;;;;;;5167477;28;20093;-78
2023/04/18 08:36:45;;;;;;;29.90;25.30;;;12.20;99.90;;;;;;5147987;28;20042;-78
2023/04/18 08:39:16;;;;;;;36.05;30.60;;;12.20;99.90;;;;;;5165625;28;20034;-79
2023/04/18 08:41:56;;;;;;;33.60;30.23;;;12.10;99.90;;;;;;5166260;28;20033;-77
2023/04/18 08:44:30;;;;;;;33.28;27.85;;;12.20;99.90;;;;;;5166352;28;20441;-78
2023/04/18 08:47:01;;;;;;;41.35;28.23;;;12.00;99.90;;;;;;5166655;28;20035;-78
2023/04/18 08:49:32;;;;;;;38.53;28.67;;;11.90;99.90;;;;;;5166397;28;20019;-78
2023/04/18 08:52:10;;;;;;;32.58;28.00;;;12.00;99.90;;;;;;5165127;28;20105;-78
2023/04/18 08:54:42;;;;;;;40.55;29.02;;;12.00;99.90;;;;;;5166595;28;20030;-78
2023/04/18 08:57:15;;;;;;;36.47;28.70;;;12.20;99.90;;;;;;5166351;28;20371;-78
2023/04/18 08:59:47;;;;;;;37.97;30.85;;;12.30;99.90;;;;;;5148958;28;20058;-77
2023/04/18 09:02:20;;;;;;;32.53;29.13;;;12.30;99.90;;;;;;5166308;28;20026;-77
2023/04/18 09:04:51;;;;;;;33.40;29.83;;;12.40;99.90;;;;;;5166860;28;20030;-77
2023/04/18 09:07:28;;;;;;;36.47;28.13;;;12.30;99.90;;;;;;5166749;28;20084;-77
2023/04/18 09:09:59;;;;;;;36.28;32.33;;;12.40;99.90;;;;;;5166834;28;20030;-77
2023/04/18 09:12:31;;;;;;;35.30;31.63;;;12.60;99.90;;;;;;5166609;28;20030;-78
2023/04/18 09:15:13;;;;;;;35.40;29.77;;;12.60;99.90;;;;;;5166876;28;20018;-77
2023/04/18 09:17:52;;;;;;;35.72;31.98;;;12.60;99.90;;;;;;5149342;28;20030;-77
2023/04/18 09:20:42;;;;;;;38.85;34.00;;;12.60;99.90;;;;;;5149401;28;20042;-77
2023/04/18 09:23:24;;;;;;;39.85;36.08;;;12.60;99.90;;;;;;5167354;28;20081;-77
2023/04/18 09:25:57;;;;;;;39.42;35.45;;;12.60;99.90;;;;;;5166623;28;20489;-77
2023/04/18 09:28:30;;;;;;;40.78;36.50;;;12.70;99.90;;;;;;5166811;28;20054;-77
2023/04/18 09:31:10;;;;;;;41.55;37.50;;;12.50;99.90;;;;;;5166685;28;20110;-76
2023/04/18 09:33:53;;;;;;;40.58;36.88;;;12.60;99.90;;;;;;5166524;28;20031;-77
2023/04/18 09:36:28;;;;;;;41.53;37.65;;;12.70;99.90;;;;;;5166517;28;20101;-77
2023/04/18 09:38:59;;;;;;;36.17;32.60;;;12.70;99.90;;;;;;5166834;28;20034;-77
2023/04/18 09:41:31;;;;;;;35.83;32.25;;;12.50;99.90;;;;;;5166429;28;20445;-77
2023/04/18 09:44:15;;;;;;;36.53;33.00;;;12.60;99.90;;;;;;5166512;28;20107;-77
2023/04/18 09:46:46;;;;;;;38.17;34.28;;;12.80;99.90;;;;;;5166373;28;20022;-77
2023/04/18 09:49:17;;;;;;;35.40;31.77;;;12.80;99.90;;;;;;5166157;28;20352;-77
2023/04/18 09:51:51;;;;;;;35.85;32.58;;;12.90;99.90;;;;;;5148610;28;20517;-77
2023/04/18 09:54:23;;;;;;;36.53;32.83;;;12.80;99.90;;;;;;5166295;28;20064;-77
2023/04/18 09:56:55;;;;;;;37.42;33.22;;;13.00;99.90;;;;;;5148652;28;20030;-77
2023/04/18 09:59:34;;;;;;;36.90;33.47;;;12.70;99.90;;;;;;5165958;28;20089;-77
2023/04/18 10:02:09;;;;;;;38.28;35.03;;;12.60;99.90;;;;;;5166416;28;20027;-79
2023/04/18 10:04:42;;;;;;;36.40;32.97;;;12.60;99.90;;;;;;5151166;28;20026;-78
2023/04/18 10:07:14;;;;;;;39.33;36.03;;;12.50;99.90;;;;;;5149736;28;20383;-79
2023/04/18 10:09:46;;;;;;;39.05;35.80;;;12.70;99.90;;;;;;5132312;28;20164;-78
2023/04/18 10:12:18;;;;;;;39.58;35.55;;;12.80;99.90;;;;;;5149844;28;20054;-78
2023/04/18 10:14:49;;;;;;;40.28;36.22;;;12.80;99.90;;;;;;5150127;28;20019;-78
2023/04/18 10:17:21;;;;;;;37.75;34.40;;;12.90;99.90;;;;;;5149793;28;20500;-78
2023/04/18 10:20:11;;;;;;;39.15;35.20;;;12.90;99.90;;;;;;5132616;28;20031;-78
2023/04/18 10:22:43;;;;;;;38.53;34.65;;;12.80;99.90;;;;;;5169731;28;20034;-78
2023/04/18 10:25:34;;;;;;;42.38;38.60;;;12.60;99.90;;;;;;5169657;28;20030;-78
2023/04/18 10:28:09;;;;;;;40.65;37.08;;;12.50;99.90;;;;;;5169383;28;20098;-78
2023/04/18 10:30:40;;;;;;;41.75;38.20;;;12.70;99.90;;;;;;5137004;28;20035;-79
2023/04/18 10:33:24;;;;;;;42.80;38.92;;;12.50;99.90;;;;;;5144388;28;20383;-79
2023/04/18 10:36:08;;;;;;;40.70;37.40;;;12.60;99.90;;;;;;5168628;28;20026;-80
2023/04/18 10:39:19;;;;;;;42.03;38.55;;;12.70;99.90;;;;;;5167854;28;20034;-79
2023/04/18 10:41:50;;;;;;;42.80;38.58;;;12.70;99.90;;;;;;5147738;28;20038;-79
2023/04/18 10:44:22;;;;;;;42.47;39.15;;;12.80;99.90;;;;;;5139992;28;20018;-79
2023/04/18 10:46:53;;;;;;;41.00;37.20;;;12.80;99.90;;;;;;5155346;28;20085;-79
2023/04/18 10:49:25;;;;;;;40.88;37.25;;;13.00;99.90;;;;;;5160391;28;20030;-79
2023/04/18 10:52:01;;;;;;;40.92;37.38;;;12.90;99.90;;;;;;5146559;28;20406;-79
2023/04/18 10:54:41;;;;;;;41.35;38.10;;;12.80;99.90;;;;;;5136143;28;20125;-80
2023/04/18 10:57:12;;;;;;;45.47;41.40;;;12.80;99.90;;;;;;5148439;28;20038;-78
2023/04/18 10:59:49;;;;;;;43.08;39.47;;;12.70;99.90;;;;;;5148692;28;20461;-78
2023/04/18 11:02:27;;;;;;;47.28;43.15;;;12.80;99.90;;;;;;5147448;28;20895;-77
2023/04/18 11:05:00;;;;;;;45.85;41.67;;;12.80;99.90;;;;;;5149256;28;20095;-76
2023/04/18 11:07:38;;;;;;;45.45;41.28;;;12.90;99.90;;;;;;5148745;28;20023;-77
2023/04/18 11:10:09;;;;;;;40.78;37.58;;;13.00;99.90;;;;;;5147359;28;20546;-77
2023/04/18 11:12:40;;;;;;;42.38;38.10;;;13.00;99.90;;;;;;5148251;28;20027;-76
2023/04/18 11:15:16;;;;;;;43.45;39.67;;;12.90;99.90;;;;;;5146076;28;20367;-76
2023/04/18 11:18:01;;;;;;;43.67;39.97;;;12.70;99.90;;;;;;5148563;28;20073;-79
2023/04/18 11:20:44;;;;;;;43.72;39.92;;;12.70;99.90;;;;;;5147801;28;20437;-77
2023/04/18 11:23:22;;;;;;;43.40;39.13;;;12.80;99.90;;;;;;5146864;28;20466;-76
2023/04/18 11:25:55;;;;;;;41.28;37.65;;;12.70;99.90;;;;;;5147951;28;20575;-76
2023/04/18 11:28:26;;;;;;;43.35;39.33;;;12.70;99.90;;;;;;5145364;28;20023;-77
2023/04/18 11:30:58;;;;;;;42.58;38.88;;;12.50;99.90;;;;;;5128269;28;20035;-77
2023/04/18 11:33:30;;;;;;;41.47;37.95;;;12.60;99.90;;;;;;5128456;28;20027;-76
2023/04/18 11:36:01;;;;;;;41.15;37.28;;;12.60;99.90;;;;;;5128269;28;20027;-76
2023/04/18 11:38:32;;;;;;;43.42;39.63;;;12.50;99.90;;;;;;5128278;29;20045;-75
2023/04/18 11:41:03;;;;;;;40.45;37.08;;;12.50;99.90;;;;;;5128150;28;20035;-76
2023/04/18 11:43:34;;;;;;;42.55;38.72;;;12.70;99.90;;;;;;5126580;29;20399;-76
2023/04/18 11:46:04;;;;;;;40.95;37.17;;;12.80;99.90;;;;;;5127958;28;20034;-76
2023/04/18 11:48:37;;;;;;;40.65;36.95;;;12.80;99.90;;;;;;5126845;28;20027;-76
2023/04/18 11:51:29;;;;;;;40.60;37.30;;;12.90;99.90;;;;;;5131154;28;20053;-76
2023/04/18 11:54:00;;;;;;;42.33;38.70;;;12.90;99.90;;;;;;5147658;28;20035;-76
2023/04/18 11:56:31;;;;;;;41.05;37.75;;;12.90;99.90;;;;;;5147886;28;20054;-76
2023/04/18 11:59:08;;;;;;;41.88;38.33;;;12.80;99.90;;;;;;5147287;28;20031;-76
2023/04/18 12:01:39;;;;;;;46.05;42.28;;;12.70;99.90;;;;;;5156197;28;20738;-76
2023/04/18 12:04:10;;;;;;;47.55;43.65;;;12.60;99.90;;;;;;5167524;28;20030;-76
2023/04/18 12:06:52;;;;;;;45.38;41.70;;;12.60;99.90;;;;;;5168184;28;20030;-75
2023/04/18 12:09:24;;;;;;;49.15;44.72;;;12.50;99.90;;;;;;5163347;28;20043;-76
2023/04/18 12:12:00;;;;;;;43.28;39.17;;;12.50;99.90;;;;;;5147547;28;20470;-76
2023/04/18 12:14:34;;;;;;;44.85;41.33;;;12.60;99.90;;;;;;5130335;28;20505;-76
2023/04/18 12:17:06;;;;;;;43.58;40.03;;;12.30;99.90;;;;;;5147426;28;20027;-76
2023/04/18 12:19:37;;;;;;;43.25;39.70;;;12.30;99.90;;;;;;5130032;28;20038;-76
2023/04/18 12:22:08;;;;;;;46.13;42.00;;;12.40;99.90;;;;;;5129816;28;20462;-76
2023/04/18 12:24:40;;;;;;;46.50;42.30;;;12.40;99.90;;;;;;5147109;28;20030;-76
2023/04/18 12:27:11;;;;;;;49.45;45.15;;;12.40;99.90;;;;;;5130083;28;20029;-77
2023/04/18 12:29:42;;;;;;;48.80;43.85;;;12.40;99.90;;;;;;5147091;28;20022;-76
2023/04/18 12:32:13;;;;;;;49.53;45.05;;;12.40;99.90;;;;;;5129783;28;20101;-78
2023/04/18 12:34:44;;;;;;;47.25;43.47;;;12.40;99.90;;;;;;5147060;28;20027;-78
2023/04/18 12:37:15;;;;;;;48.13;44.03;;;12.40;99.90;;;;;;5147172;28;20033;-77
2023/04/18 12:39:45;;;;;;;48.00;43.60;;;12.30;99.90;;;;;;5146766;28;20366;-77
2023/04/18 12:42:16;;;;;;;52.88;48.40;;;12.30;99.90;;;;;;5129692;28;20027;-77
2023/04/18 12:44:47;;;;;;;45.53;41.72;;;12.20;99.90;;;;;;5129302;28;20057;-76
2023/04/18 12:47:18;;;;;;;48.97;44.42;;;12.40;99.90;;;;;;5129213;28;20018;-77
2023/04/18 12:49:49;;;;;;;50.80;46.22;;;12.30;99.90;;;;;;5147155;28;20027;-76
2023/04/18 12:52:20;;;;;;;44.58;40.80;;;12.30;99.90;;;;;;5146714;28;20043;-77
2023/04/18 12:54:51;;;;;;;39.63;35.55;;;12.10;99.90;;;;;;5129222;28;20034;-77